sensor_id;sensor_type;location;lat;lon;timestamp;temperature;humidity
16305;DHT22;8261;47.678;-122.174;2022-10-31T00:01:00;11.70;99.90
16305;DHT22;8261;47.678;-122.174;2022-10-31T00:03:34;11.70;99.90
16305;DHT22;8261;47.678;-122.174;2022-10-31T00:06:05;11.70;99.90
16305;DHT22;8261;47.678;-122.174;2022-10-31T00:08:36;11.70;99.90
16305;DHT22;8261;47.678;-122.174;2022-10-31T00:11:09;11.80;99.90
16305;DHT22;8261;47.678;-122.174;2022-10-31T00:13:41;11.80;99.90
16305;DHT22;8261;47.678;-122.174;2022-10-31T00:16:17;11.80;99.90
16305;DHT22;8261;47.678;-122.174;2022-10-31T00:18:52;11.80;99.90
16305;DHT22;8261;47.678;-122.174;2022-10-31T00:21:24;11.80;99.90
16305;DHT22;8261;47.678;-122.174;2022-10-31T00:23:56;11.80;99.90
16305;DHT22;8261;47.678;-122.174;2022-10-31T00:26:28;11.90;99.90
16305;DHT22;8261;47.678;-122.174;2022-10-31T00:28:59;11.90;99.90
16305;DHT22;8261;47.678;-122.174;2022-10-31T00:31:31;11.90;99.90
16305;DHT22;8261;47.678;-122.174;2022-10-31T00:34:04;12.00;99.90
16305;DHT22;8261;47.678;-122.174;2022-10-31T00:36:35;12.00;99.90
16305;DHT22;8261;47.678;-122.174;2022-10-31T00:39:06;12.10;99.90
16305;DHT22;8261;47.678;-122.174;2022-10-31T00:41:36;12.10;99.90
16305;DHT22;8261;47.678;-122.174;2022-10-31T00:44:07;12.10;99.90
16305;DHT22;8261;47.678;-122.174;2022-10-31T00:46:38;12.10;99.90
16305;DHT22;8261;47.678;-122.174;2022-10-31T00:49:11;12.20;99.90
16305;DHT22;8261;47.678;-122.174;2022-10-31T00:51:42;12.20;99.90
16305;DHT22;8261;47.678;-122.174;2022-10-31T00:54:13;12.30;99.90
16305;DHT22;8261;47.678;-122.174;2022-10-31T00:56:44;12.40;99.90
16305;DHT22;8261;47.678;-122.174;2022-10-31T00:59:15;12.50;99.90
16305;DHT22;8261;47.678;-122.174;2022-10-31T01:01:47;12.50;99.90
16305;DHT22;8261;47.678;-122.174;2022-10-31T01:04:21;12.50;99.90
16305;DHT22;8261;47.678;-122.174;2022-10-31T01:06:53;12.60;99.90
16305;DHT22;8261;47.678;-122.174;2022-10-31T01:09:24;12.60;99.90
16305;DHT22;8261;47.678;-122.174;2022-10-31T01:11:55;12.70;99.90
16305;DHT22;8261;47.678;-122.174;2022-10-31T01:14:27;12.70;99.90
16305;DHT22;8261;47.678;-122.174;2022-10-31T01:16:58;12.60;99.90
16305;DHT22;8261;47.678;-122.174;2022-10-31T01:19:31;12.60;99.90
16305;DHT22;8261;47.678;-122.174;2022-10-31T01:22:02;12.60;99.90
16305;DHT22;8261;47.678;-122.174;2022-10-31T01:24:33;12.60;99.90
16305;DHT22;8261;47.678;-122.174;2022-10-31T01:27:04;12.60;99.90
16305;DHT22;8261;47.678;-122.174;2022-10-31T01:29:35;12.50;99.90
16305;DHT22;8261;47.678;-122.174;2022-10-31T01:32:07;12.50;99.90
16305;DHT22;8261;47.678;-122.174;2022-10-31T01:34:39;12.50;99.90
16305;DHT22;8261;47.678;-122.174;2022-10-31T01:37:10;12.50;99.90
16305;DHT22;8261;47.678;-122.174;2022-10-31T01:39:41;12.50;99.90
16305;DHT22;8261;47.678;-122.174;2022-10-31T01:42:17;12.50;99.90
16305;DHT22;8261;47.678;-122.174;2022-10-31T01:44:56;12.50;99.90
16305;DHT22;8261;47.678;-122.174;2022-10-31T01:47:41;12.50;99.90
16305;DHT22;8261;47.678;-122.174;2022-10-31T01:50:31;12.50;99.90
16305;DHT22;8261;47.678;-122.174;2022-10-31T01:53:06;12.50;99.90
16305;DHT22;8261;47.678;-122.174;2022-10-31T01:55:41;12.50;99.90
16305;DHT22;8261;47.678;-122.174;2022-10-31T01:58:14;12.50;99.90
16305;DHT22;8261;47.678;-122.174;2022-10-31T02:00:49;12.60;99.90
16305;DHT22;8261;47.678;-122.174;2022-10-31T02:03:22;12.60;99.90
16305;DHT22;8261;47.678;-122.174;2022-10-31T02:05:57;12.60;99.90
16305;DHT22;8261;47.678;-122.174;2022-10-31T02:08:30;12.60;99.90
16305;DHT22;8261;47.678;-122.174;2022-10-31T02:11:02;12.60;99.90
16305;DHT22;8261;47.678;-122.174;2022-10-31T02:13:34;12.60;99.90
16305;DHT22;8261;47.678;-122.174;2022-10-31T02:16:06;12.60;99.90
16305;DHT22;8261;47.678;-122.174;2022-10-31T02:18:37;12.60;99.90
16305;DHT22;8261;47.678;-122.174;2022-10-31T02:21:17;12.70;99.90
16305;DHT22;8261;47.678;-122.174;2022-10-31T02:30:05;12.60;99.90
16305;DHT22;8261;47.678;-122.174;2022-10-31T02:32:50;12.60;99.90
16305;DHT22;8261;47.678;-122.174;2022-10-31T02:35:39;12.60;99.90
16305;DHT22;8261;47.678;-122.174;2022-10-31T02:38:26;12.50;99.90
16305;DHT22;8261;47.678;-122.174;2022-10-31T02:41:06;12.50;99.90
16305;DHT22;8261;47.678;-122.174;2022-10-31T02:43:44;12.40;99.90
16305;DHT22;8261;47.678;-122.174;2022-10-31T02:46:22;12.40;99.90
16305;DHT22;8261;47.678;-122.174;2022-10-31T02:49:00;12.40;99.90
16305;DHT22;8261;47.678;-122.174;2022-10-31T02:51:33;12.30;99.90
16305;DHT22;8261;47.678;-122.174;2022-10-31T02:54:04;12.30;99.90
16305;DHT22;8261;47.678;-122.174;2022-10-31T02:56:35;12.20;99.90
16305;DHT22;8261;47.678;-122.174;2022-10-31T02:59:06;12.20;99.90
16305;DHT22;8261;47.678;-122.174;2022-10-31T03:04:56;12.20;99.90
16305;DHT22;8261;47.678;-122.174;2022-10-31T03:07:36;12.20;99.90
16305;DHT22;8261;47.678;-122.174;2022-10-31T03:10:16;12.20;99.90
16305;DHT22;8261;47.678;-122.174;2022-10-31T03:12:53;12.20;99.90
16305;DHT22;8261;47.678;-122.174;2022-10-31T03:15:32;12.20;99.90
16305;DHT22;8261;47.678;-122.174;2022-10-31T03:18:06;12.10;99.90
16305;DHT22;8261;47.678;-122.174;2022-10-31T03:20:42;12.10;99.90
16305;DHT22;8261;47.678;-122.174;2022-10-31T03:23:16;12.00;99.90
16305;DHT22;8261;47.678;-122.174;2022-10-31T03:25:49;12.00;99.90
16305;DHT22;8261;47.678;-122.174;2022-10-31T03:28:26;11.90;99.90
16305;DHT22;8261;47.678;-122.174;2022-10-31T03:30:59;12.00;99.90
16305;DHT22;8261;47.678;-122.174;2022-10-31T03:33:36;12.00;99.90
16305;DHT22;8261;47.678;-122.174;2022-10-31T03:36:12;12.00;99.90
16305;DHT22;8261;47.678;-122.174;2022-10-31T03:38:46;11.90;99.90
16305;DHT22;8261;47.678;-122.174;2022-10-31T03:41:21;11.90;99.90
16305;DHT22;8261;47.678;-122.174;2022-10-31T03:43:57;11.90;99.90
16305;DHT22;8261;47.678;-122.174;2022-10-31T03:46:29;11.90;99.90
16305;DHT22;8261;47.678;-122.174;2022-10-31T03:49:00;11.90;99.90
16305;DHT22;8261;47.678;-122.174;2022-10-31T03:51:39;11.90;99.90
16305;DHT22;8261;47.678;-122.174;2022-10-31T03:54:18;11.90;99.90
16305;DHT22;8261;47.678;-122.174;2022-10-31T03:56:53;11.90;99.90
16305;DHT22;8261;47.678;-122.174;2022-10-31T03:59:28;11.90;99.90
16305;DHT22;8261;47.678;-122.174;2022-10-31T04:02:05;11.90;99.90
16305;DHT22;8261;47.678;-122.174;2022-10-31T04:04:37;11.90;99.90
16305;DHT22;8261;47.678;-122.174;2022-10-31T04:07:11;11.90;99.90
16305;DHT22;8261;47.678;-122.174;2022-10-31T04:09:46;11.80;99.90
16305;DHT22;8261;47.678;-122.174;2022-10-31T04:12:20;11.80;99.90
16305;DHT22;8261;47.678;-122.174;2022-10-31T04:14:53;11.80;99.90
16305;DHT22;8261;47.678;-122.174;2022-10-31T04:17:29;11.80;99.90
16305;DHT22;8261;47.678;-122.174;2022-10-31T04:20:03;11.80;99.90
16305;DHT22;8261;47.678;-122.174;2022-10-31T04:22:36;11.80;99.90
16305;DHT22;8261;47.678;-122.174;2022-10-31T04:25:08;11.80;99.90
16305;DHT22;8261;47.678;-122.174;2022-10-31T04:27:39;11.80;99.90
16305;DHT22;8261;47.678;-122.174;2022-10-31T04:30:11;11.70;99.90
16305;DHT22;8261;47.678;-122.174;2022-10-31T04:32:42;11.70;99.90
16305;DHT22;8261;47.678;-122.174;2022-10-31T04:35:13;11.70;99.90
16305;DHT22;8261;47.678;-122.174;2022-10-31T04:37:47;11.70;99.90
16305;DHT22;8261;47.678;-122.174;2022-10-31T04:40:18;11.60;99.90
16305;DHT22;8261;47.678;-122.174;2022-10-31T04:42:49;11.60;99.90
16305;DHT22;8261;47.678;-122.174;2022-10-31T04:45:20;11.60;99.90
16305;DHT22;8261;47.678;-122.174;2022-10-31T04:47:51;11.60;99.90
16305;DHT22;8261;47.678;-122.174;2022-10-31T04:50:22;11.60;99.90
16305;DHT22;8261;47.678;-122.174;2022-10-31T04:52:55;11.60;99.90
16305;DHT22;8261;47.678;-122.174;2022-10-31T04:55:26;11.60;99.90
16305;DHT22;8261;47.678;-122.174;2022-10-31T04:57:57;11.60;99.90
16305;DHT22;8261;47.678;-122.174;2022-10-31T05:00:29;11.60;99.90
16305;DHT22;8261;47.678;-122.174;2022-10-31T05:03:00;11.60;99.90
16305;DHT22;8261;47.678;-122.174;2022-10-31T05:05:32;11.60;99.90
16305;DHT22;8261;47.678;-122.174;2022-10-31T05:08:05;11.60;99.90
16305;DHT22;8261;47.678;-122.174;2022-10-31T05:10:36;11.60;99.90
16305;DHT22;8261;47.678;-122.174;2022-10-31T05:13:07;11.60;99.90
16305;DHT22;8261;47.678;-122.174;2022-10-31T05:15:39;11.60;99.90
16305;DHT22;8261;47.678;-122.174;2022-10-31T05:18:10;11.60;99.90
16305;DHT22;8261;47.678;-122.174;2022-10-31T05:20:41;11.60;99.90
16305;DHT22;8261;47.678;-122.174;2022-10-31T05:23:14;11.60;99.90
16305;DHT22;8261;47.678;-122.174;2022-10-31T05:25:45;11.60;99.90
16305;DHT22;8261;47.678;-122.174;2022-10-31T05:28:16;11.60;99.90
16305;DHT22;8261;47.678;-122.174;2022-10-31T05:30:47;11.60;99.90
16305;DHT22;8261;47.678;-122.174;2022-10-31T05:33:19;11.60;99.90
16305;DHT22;8261;47.678;-122.174;2022-10-31T05:35:50;11.60;99.90
16305;DHT22;8261;47.678;-122.174;2022-10-31T05:38:23;11.60;99.90
16305;DHT22;8261;47.678;-122.174;2022-10-31T05:40:55;11.60;99.90
16305;DHT22;8261;47.678;-122.174;2022-10-31T05:43:29;11.60;99.90
16305;DHT22;8261;47.678;-122.174;2022-10-31T05:46:00;11.60;99.90
16305;DHT22;8261;47.678;-122.174;2022-10-31T05:48:31;11.60;99.90
16305;DHT22;8261;47.678;-122.174;2022-10-31T05:51:03;11.60;99.90
16305;DHT22;8261;47.678;-122.174;2022-10-31T05:53:36;11.60;99.90
16305;DHT22;8261;47.678;-122.174;2022-10-31T05:56:07;11.60;99.90
16305;DHT22;8261;47.678;-122.174;2022-10-31T05:58:38;11.50;99.90
16305;DHT22;8261;47.678;-122.174;2022-10-31T06:01:09;11.50;99.90
16305;DHT22;8261;47.678;-122.174;2022-10-31T06:03:40;11.60;99.90
16305;DHT22;8261;47.678;-122.174;2022-10-31T06:06:12;11.60;99.90
16305;DHT22;8261;47.678;-122.174;2022-10-31T06:08:45;11.60;99.90
16305;DHT22;8261;47.678;-122.174;2022-10-31T06:11:16;11.60;99.90
16305;DHT22;8261;47.678;-122.174;2022-10-31T06:13:47;11.50;99.90
16305;DHT22;8261;47.678;-122.174;2022-10-31T06:16:18;11.50;99.90
16305;DHT22;8261;47.678;-122.174;2022-10-31T06:18:49;11.60;99.90
16305;DHT22;8261;47.678;-122.174;2022-10-31T06:21:20;11.60;99.90
16305;DHT22;8261;47.678;-122.174;2022-10-31T06:23:53;11.60;99.90
16305;DHT22;8261;47.678;-122.174;2022-10-31T06:26:25;11.60;99.90
16305;DHT22;8261;47.678;-122.174;2022-10-31T06:28:56;11.60;99.90
16305;DHT22;8261;47.678;-122.174;2022-10-31T06:31:31;11.60;99.90
16305;DHT22;8261;47.678;-122.174;2022-10-31T06:34:02;11.60;99.90
16305;DHT22;8261;47.678;-122.174;2022-10-31T06:36:34;11.60;99.90
16305;DHT22;8261;47.678;-122.174;2022-10-31T06:39:07;11.60;99.90
16305;DHT22;8261;47.678;-122.174;2022-10-31T06:41:38;11.60;99.90
16305;DHT22;8261;47.678;-122.174;2022-10-31T06:44:10;11.60;99.90
16305;DHT22;8261;47.678;-122.174;2022-10-31T06:46:41;11.60;99.90
16305;DHT22;8261;47.678;-122.174;2022-10-31T06:49:12;11.50;99.90
16305;DHT22;8261;47.678;-122.174;2022-10-31T06:51:43;11.50;99.90
16305;DHT22;8261;47.678;-122.174;2022-10-31T06:54:19;11.50;99.90
16305;DHT22;8261;47.678;-122.174;2022-10-31T06:56:50;11.50;99.90
16305;DHT22;8261;47.678;-122.174;2022-10-31T06:59:21;11.40;99.90
16305;DHT22;8261;47.678;-122.174;2022-10-31T07:01:54;11.40;99.90
16305;DHT22;8261;47.678;-122.174;2022-10-31T07:04:25;11.40;99.90
16305;DHT22;8261;47.678;-122.174;2022-10-31T07:06:57;11.30;99.90
16305;DHT22;8261;47.678;-122.174;2022-10-31T07:09:29;11.20;99.90
16305;DHT22;8261;47.678;-122.174;2022-10-31T07:12:01;11.20;99.90
16305;DHT22;8261;47.678;-122.174;2022-10-31T07:14:32;11.20;99.90
16305;DHT22;8261;47.678;-122.174;2022-10-31T07:17:03;11.20;99.90
16305;DHT22;8261;47.678;-122.174;2022-10-31T07:19:35;11.10;99.90
16305;DHT22;8261;47.678;-122.174;2022-10-31T07:22:08;11.10;99.90
16305;DHT22;8261;47.678;-122.174;2022-10-31T07:24:41;11.10;99.90
16305;DHT22;8261;47.678;-122.174;2022-10-31T07:27:12;11.00;99.90
16305;DHT22;8261;47.678;-122.174;2022-10-31T07:29:43;11.00;99.90
16305;DHT22;8261;47.678;-122.174;2022-10-31T07:32:15;11.00;99.90
16305;DHT22;8261;47.678;-122.174;2022-10-31T07:34:46;11.00;99.90
16305;DHT22;8261;47.678;-122.174;2022-10-31T07:37:17;11.00;99.90
16305;DHT22;8261;47.678;-122.174;2022-10-31T07:39:50;11.00;99.90
16305;DHT22;8261;47.678;-122.174;2022-10-31T07:42:21;10.90;99.90
16305;DHT22;8261;47.678;-122.174;2022-10-31T07:44:52;11.00;99.90
16305;DHT22;8261;47.678;-122.174;2022-10-31T07:47:24;10.90;99.90
16305;DHT22;8261;47.678;-122.174;2022-10-31T07:49:56;10.90;99.90
16305;DHT22;8261;47.678;-122.174;2022-10-31T07:52:27;10.90;99.90
16305;DHT22;8261;47.678;-122.174;2022-10-31T07:55:00;10.80;99.90
16305;DHT22;8261;47.678;-122.174;2022-10-31T07:57:32;10.70;99.90
16305;DHT22;8261;47.678;-122.174;2022-10-31T08:00:06;10.60;99.90
16305;DHT22;8261;47.678;-122.174;2022-10-31T08:02:38;10.70;99.90
16305;DHT22;8261;47.678;-122.174;2022-10-31T08:05:10;10.60;99.90
16305;DHT22;8261;47.678;-122.174;2022-10-31T08:07:41;10.60;99.90
16305;DHT22;8261;47.678;-122.174;2022-10-31T08:10:14;10.60;99.90
16305;DHT22;8261;47.678;-122.174;2022-10-31T08:12:46;10.50;99.90
16305;DHT22;8261;47.678;-122.174;2022-10-31T08:15:17;10.50;99.90
16305;DHT22;8261;47.678;-122.174;2022-10-31T08:17:48;10.50;99.90
16305;DHT22;8261;47.678;-122.174;2022-10-31T08:20:20;10.50;99.90
16305;DHT22;8261;47.678;-122.174;2022-10-31T08:22:55;10.40;99.90
16305;DHT22;8261;47.678;-122.174;2022-10-31T08:25:30;10.40;99.90
16305;DHT22;8261;47.678;-122.174;2022-10-31T08:28:06;10.40;99.90
16305;DHT22;8261;47.678;-122.174;2022-10-31T08:30:38;10.30;99.90
16305;DHT22;8261;47.678;-122.174;2022-10-31T08:33:10;10.30;99.90
16305;DHT22;8261;47.678;-122.174;2022-10-31T08:35:42;10.20;99.90
16305;DHT22;8261;47.678;-122.174;2022-10-31T08:38:13;10.10;99.90
16305;DHT22;8261;47.678;-122.174;2022-10-31T08:40:48;10.10;99.90
16305;DHT22;8261;47.678;-122.174;2022-10-31T08:43:19;10.10;99.90
16305;DHT22;8261;47.678;-122.174;2022-10-31T08:45:50;10.10;99.90
16305;DHT22;8261;47.678;-122.174;2022-10-31T08:48:23;10.00;99.90
16305;DHT22;8261;47.678;-122.174;2022-10-31T08:50:56;10.00;99.90
16305;DHT22;8261;47.678;-122.174;2022-10-31T08:53:28;10.00;99.90
16305;DHT22;8261;47.678;-122.174;2022-10-31T08:56:01;10.00;99.90
16305;DHT22;8261;47.678;-122.174;2022-10-31T08:58:32;10.00;99.90
16305;DHT22;8261;47.678;-122.174;2022-10-31T09:01:07;9.90;99.90
16305;DHT22;8261;47.678;-122.174;2022-10-31T09:03:38;10.00;99.90
16305;DHT22;8261;47.678;-122.174;2022-10-31T09:06:10;9.90;99.90
16305;DHT22;8261;47.678;-122.174;2022-10-31T09:08:41;9.80;99.90
16305;DHT22;8261;47.678;-122.174;2022-10-31T09:11:14;9.90;99.90
16305;DHT22;8261;47.678;-122.174;2022-10-31T09:13:46;9.80;99.90
16305;DHT22;8261;47.678;-122.174;2022-10-31T09:16:17;9.90;99.90
16305;DHT22;8261;47.678;-122.174;2022-10-31T09:18:48;9.90;99.90
16305;DHT22;8261;47.678;-122.174;2022-10-31T09:21:19;9.80;99.90
16305;DHT22;8261;47.678;-122.174;2022-10-31T09:23:51;9.80;99.90
16305;DHT22;8261;47.678;-122.174;2022-10-31T09:26:24;9.90;99.90
16305;DHT22;8261;47.678;-122.174;2022-10-31T09:28:55;9.90;99.90
16305;DHT22;8261;47.678;-122.174;2022-10-31T09:31:27;9.80;99.90
16305;DHT22;8261;47.678;-122.174;2022-10-31T09:33:58;9.80;99.90
16305;DHT22;8261;47.678;-122.174;2022-10-31T09:36:29;9.80;99.90
16305;DHT22;8261;47.678;-122.174;2022-10-31T09:39:00;9.80;99.90
16305;DHT22;8261;47.678;-122.174;2022-10-31T09:41:44;9.80;99.90
16305;DHT22;8261;47.678;-122.174;2022-10-31T09:44:29;9.80;99.90
16305;DHT22;8261;47.678;-122.174;2022-10-31T09:47:10;9.80;99.90
16305;DHT22;8261;47.678;-122.174;2022-10-31T09:50:00;9.80;99.90
16305;DHT22;8261;47.678;-122.174;2022-10-31T09:52:34;9.80;99.90
16305;DHT22;8261;47.678;-122.174;2022-10-31T09:55:12;9.80;99.90
16305;DHT22;8261;47.678;-122.174;2022-10-31T09:57:47;9.70;99.90
16305;DHT22;8261;47.678;-122.174;2022-10-31T10:00:20;9.70;99.90
16305;DHT22;8261;47.678;-122.174;2022-10-31T10:02:56;9.70;99.90
16305;DHT22;8261;47.678;-122.174;2022-10-31T10:05:33;9.80;99.90
16305;DHT22;8261;47.678;-122.174;2022-10-31T10:08:09;9.80;99.90
16305;DHT22;8261;47.678;-122.174;2022-10-31T10:10:48;9.70;99.90
16305;DHT22;8261;47.678;-122.174;2022-10-31T10:13:36;9.80;99.90
16305;DHT22;8261;47.678;-122.174;2022-10-31T10:16:21;9.80;99.90
16305;DHT22;8261;47.678;-122.174;2022-10-31T10:19:12;9.80;99.90
16305;DHT22;8261;47.678;-122.174;2022-10-31T10:21:49;9.80;99.90
16305;DHT22;8261;47.678;-122.174;2022-10-31T10:24:39;9.80;99.90
16305;DHT22;8261;47.678;-122.174;2022-10-31T10:27:19;9.70;99.90
16305;DHT22;8261;47.678;-122.174;2022-10-31T10:30:02;9.70;99.90
16305;DHT22;8261;47.678;-122.174;2022-10-31T10:32:42;9.70;99.90
16305;DHT22;8261;47.678;-122.174;2022-10-31T10:35:23;9.60;99.90
16305;DHT22;8261;47.678;-122.174;2022-10-31T10:38:00;9.70;99.90
16305;DHT22;8261;47.678;-122.174;2022-10-31T10:40:33;9.70;99.90
16305;DHT22;8261;47.678;-122.174;2022-10-31T10:43:22;9.60;99.90
16305;DHT22;8261;47.678;-122.174;2022-10-31T10:46:17;9.60;99.90
16305;DHT22;8261;47.678;-122.174;2022-10-31T10:49:16;9.60;99.90
16305;DHT22;8261;47.678;-122.174;2022-10-31T10:51:52;9.50;99.90
16305;DHT22;8261;47.678;-122.174;2022-10-31T10:54:54;9.50;99.90
16305;DHT22;8261;47.678;-122.174;2022-10-31T10:57:47;9.50;99.90
16305;DHT22;8261;47.678;-122.174;2022-10-31T11:00:24;9.50;99.90
16305;DHT22;8261;47.678;-122.174;2022-10-31T11:02:58;9.50;99.90
16305;DHT22;8261;47.678;-122.174;2022-10-31T11:05:35;9.50;99.90
16305;DHT22;8261;47.678;-122.174;2022-10-31T11:08:07;9.50;99.90
16305;DHT22;8261;47.678;-122.174;2022-10-31T11:10:38;9.50;99.90
16305;DHT22;8261;47.678;-122.174;2022-10-31T11:13:21;9.50;99.90
16305;DHT22;8261;47.678;-122.174;2022-10-31T11:15:59;9.50;99.90
16305;DHT22;8261;47.678;-122.174;2022-10-31T11:18:37;9.60;99.90
16305;DHT22;8261;47.678;-122.174;2022-10-31T11:21:20;9.50;99.90
16305;DHT22;8261;47.678;-122.174;2022-10-31T11:24:02;9.60;99.90
16305;DHT22;8261;47.678;-122.174;2022-10-31T11:26:34;9.60;99.90
16305;DHT22;8261;47.678;-122.174;2022-10-31T11:29:13;9.60;99.90
16305;DHT22;8261;47.678;-122.174;2022-10-31T11:31:45;9.60;99.90
16305;DHT22;8261;47.678;-122.174;2022-10-31T11:34:27;9.60;99.90
16305;DHT22;8261;47.678;-122.174;2022-10-31T11:37:04;9.60;99.90
16305;DHT22;8261;47.678;-122.174;2022-10-31T11:39:41;9.60;99.90
16305;DHT22;8261;47.678;-122.174;2022-10-31T11:42:13;9.70;99.90
16305;DHT22;8261;47.678;-122.174;2022-10-31T11:44:45;9.70;99.90
16305;DHT22;8261;47.678;-122.174;2022-10-31T11:47:16;9.80;99.90
16305;DHT22;8261;47.678;-122.174;2022-10-31T11:49:50;9.80;99.90
16305;DHT22;8261;47.678;-122.174;2022-10-31T11:52:23;9.70;99.90
16305;DHT22;8261;47.678;-122.174;2022-10-31T11:54:57;9.60;99.90
16305;DHT22;8261;47.678;-122.174;2022-10-31T11:57:30;9.70;99.90
16305;DHT22;8261;47.678;-122.174;2022-10-31T12:00:05;9.80;99.90
16305;DHT22;8261;47.678;-122.174;2022-10-31T12:03:03;9.80;99.90
16305;DHT22;8261;47.678;-122.174;2022-10-31T12:05:38;9.80;99.90
16305;DHT22;8261;47.678;-122.174;2022-10-31T12:08:11;9.80;99.90
16305;DHT22;8261;47.678;-122.174;2022-10-31T12:10:51;9.80;99.90
16305;DHT22;8261;47.678;-122.174;2022-10-31T12:13:33;9.90;99.90
16305;DHT22;8261;47.678;-122.174;2022-10-31T12:16:11;9.90;99.90
16305;DHT22;8261;47.678;-122.174;2022-10-31T12:18:53;10.00;99.90
16305;DHT22;8261;47.678;-122.174;2022-10-31T12:21:50;10.00;99.90
16305;DHT22;8261;47.678;-122.174;2022-10-31T12:24:35;10.10;99.90
16305;DHT22;8261;47.678;-122.174;2022-10-31T12:27:15;10.20;99.90
16305;DHT22;8261;47.678;-122.174;2022-10-31T12:30:14;10.30;99.90
16305;DHT22;8261;47.678;-122.174;2022-10-31T12:33:01;10.40;99.90
16305;DHT22;8261;47.678;-122.174;2022-10-31T12:35:44;10.50;99.90
16305;DHT22;8261;47.678;-122.174;2022-10-31T12:38:42;10.60;99.90
16305;DHT22;8261;47.678;-122.174;2022-10-31T12:41:33;10.70;99.90
16305;DHT22;8261;47.678;-122.174;2022-10-31T12:44:12;10.70;99.90
16305;DHT22;8261;47.678;-122.174;2022-10-31T12:46:56;10.80;99.90
16305;DHT22;8261;47.678;-122.174;2022-10-31T12:49:42;10.80;99.90
16305;DHT22;8261;47.678;-122.174;2022-10-31T12:52:30;10.80;99.90
16305;DHT22;8261;47.678;-122.174;2022-10-31T12:58:09;10.90;99.90
16305;DHT22;8261;47.678;-122.174;2022-10-31T13:00:44;10.90;99.90
16305;DHT22;8261;47.678;-122.174;2022-10-31T13:03:26;11.00;99.90
16305;DHT22;8261;47.678;-122.174;2022-10-31T13:06:03;10.90;99.90
16305;DHT22;8261;47.678;-122.174;2022-10-31T13:08:40;11.00;99.90
16305;DHT22;8261;47.678;-122.174;2022-10-31T13:11:16;11.00;99.90
16305;DHT22;8261;47.678;-122.174;2022-10-31T13:13:57;11.00;99.90
16305;DHT22;8261;47.678;-122.174;2022-10-31T13:16:32;11.00;99.90
16305;DHT22;8261;47.678;-122.174;2022-10-31T13:19:10;11.00;99.90
16305;DHT22;8261;47.678;-122.174;2022-10-31T13:21:49;11.00;99.90
16305;DHT22;8261;47.678;-122.174;2022-10-31T13:24:30;11.00;99.90
16305;DHT22;8261;47.678;-122.174;2022-10-31T13:27:11;11.00;99.90
16305;DHT22;8261;47.678;-122.174;2022-10-31T13:29:53;10.90;99.90
16305;DHT22;8261;47.678;-122.174;2022-10-31T13:32:30;10.90;99.90
16305;DHT22;8261;47.678;-122.174;2022-10-31T13:35:14;10.90;99.90
16305;DHT22;8261;47.678;-122.174;2022-10-31T13:37:51;10.90;99.90
16305;DHT22;8261;47.678;-122.174;2022-10-31T13:40:32;10.90;99.90
16305;DHT22;8261;47.678;-122.174;2022-10-31T13:43:10;10.90;99.90
16305;DHT22;8261;47.678;-122.174;2022-10-31T13:46:00;10.90;99.90
16305;DHT22;8261;47.678;-122.174;2022-10-31T13:48:39;10.90;99.90
16305;DHT22;8261;47.678;-122.174;2022-10-31T13:51:11;10.90;99.90
16305;DHT22;8261;47.678;-122.174;2022-10-31T13:53:45;10.90;99.90
16305;DHT22;8261;47.678;-122.174;2022-10-31T13:56:19;10.90;99.90
16305;DHT22;8261;47.678;-122.174;2022-10-31T13:59:14;10.90;99.90
16305;DHT22;8261;47.678;-122.174;2022-10-31T14:01:54;10.90;99.90
16305;DHT22;8261;47.678;-122.174;2022-10-31T14:04:28;10.90;99.90
16305;DHT22;8261;47.678;-122.174;2022-10-31T14:07:07;10.90;99.90
16305;DHT22;8261;47.678;-122.174;2022-10-31T14:09:41;10.90;99.90
16305;DHT22;8261;47.678;-122.174;2022-10-31T14:12:25;10.90;99.90
16305;DHT22;8261;47.678;-122.174;2022-10-31T14:14:59;10.90;99.90
16305;DHT22;8261;47.678;-122.174;2022-10-31T14:17:40;11.00;99.90
16305;DHT22;8261;47.678;-122.174;2022-10-31T14:20:34;11.00;99.90
16305;DHT22;8261;47.678;-122.174;2022-10-31T14:23:36;11.00;99.90
16305;DHT22;8261;47.678;-122.174;2022-10-31T14:29:24;11.00;99.90
16305;DHT22;8261;47.678;-122.174;2022-10-31T14:32:02;11.00;99.90
16305;DHT22;8261;47.678;-122.174;2022-10-31T14:34:42;10.90;99.90
16305;DHT22;8261;47.678;-122.174;2022-10-31T14:37:39;10.90;99.90
16305;DHT22;8261;47.678;-122.174;2022-10-31T14:40:35;11.00;99.90
16305;DHT22;8261;47.678;-122.174;2022-10-31T14:46:17;11.00;99.90
16305;DHT22;8261;47.678;-122.174;2022-10-31T14:49:02;11.00;99.90
16305;DHT22;8261;47.678;-122.174;2022-10-31T14:51:40;11.00;99.90
16305;DHT22;8261;47.678;-122.174;2022-10-31T14:54:14;11.00;99.90
16305;DHT22;8261;47.678;-122.174;2022-10-31T14:56:50;11.00;99.90
16305;DHT22;8261;47.678;-122.174;2022-10-31T14:59:27;11.00;99.90
16305;DHT22;8261;47.678;-122.174;2022-10-31T15:02:01;11.00;99.90
16305;DHT22;8261;47.678;-122.174;2022-10-31T15:04:39;11.10;99.90
16305;DHT22;8261;47.678;-122.174;2022-10-31T15:07:14;11.00;99.90
16305;DHT22;8261;47.678;-122.174;2022-10-31T15:09:58;11.00;99.90
16305;DHT22;8261;47.678;-122.174;2022-10-31T15:12:31;11.10;99.90
16305;DHT22;8261;47.678;-122.174;2022-10-31T15:15:12;11.10;99.90
16305;DHT22;8261;47.678;-122.174;2022-10-31T15:17:44;11.10;99.90
16305;DHT22;8261;47.678;-122.174;2022-10-31T15:20:22;11.10;99.90
16305;DHT22;8261;47.678;-122.174;2022-10-31T15:22:56;11.10;99.90
16305;DHT22;8261;47.678;-122.174;2022-10-31T15:25:35;11.10;99.90
16305;DHT22;8261;47.678;-122.174;2022-10-31T15:28:14;11.20;99.90
16305;DHT22;8261;47.678;-122.174;2022-10-31T15:30:53;11.20;99.90
16305;DHT22;8261;47.678;-122.174;2022-10-31T15:33:25;11.20;99.90
16305;DHT22;8261;47.678;-122.174;2022-10-31T15:36:05;11.20;99.90
16305;DHT22;8261;47.678;-122.174;2022-10-31T15:38:38;11.20;99.90
16305;DHT22;8261;47.678;-122.174;2022-10-31T15:41:23;11.20;99.90
16305;DHT22;8261;47.678;-122.174;2022-10-31T15:43:56;11.30;99.90
16305;DHT22;8261;47.678;-122.174;2022-10-31T15:46:30;11.30;99.90
16305;DHT22;8261;47.678;-122.174;2022-10-31T15:49:02;11.30;99.90
16305;DHT22;8261;47.678;-122.174;2022-10-31T15:51:34;11.30;99.90
16305;DHT22;8261;47.678;-122.174;2022-10-31T15:54:13;11.30;99.90
16305;DHT22;8261;47.678;-122.174;2022-10-31T15:56:46;11.30;99.90
16305;DHT22;8261;47.678;-122.174;2022-10-31T15:59:20;11.40;99.90
16305;DHT22;8261;47.678;-122.174;2022-10-31T16:02:02;11.40;99.90
16305;DHT22;8261;47.678;-122.174;2022-10-31T16:04:34;11.40;99.90
16305;DHT22;8261;47.678;-122.174;2022-10-31T16:07:14;11.40;99.90
16305;DHT22;8261;47.678;-122.174;2022-10-31T16:09:54;11.50;99.90
16305;DHT22;8261;47.678;-122.174;2022-10-31T16:12:36;11.50;99.90
16305;DHT22;8261;47.678;-122.174;2022-10-31T16:15:13;11.50;99.90